Latest Coastal Weather Observations for Gabo Island

IDT60701

Issued at 1:21 am EDT Monday 26 January 2015 (issued every 10 minutes, with the page automatically refreshed every 10 minutes)

About coastal observations | Map of coastal stations | Coastal observations for TAS | Marine services | Other Formats
Station Details ID: 084016 Name: GABO ISLAND LIGHTHOUSE Lat: -37.57 Lon: 149.92 Height: 15.2 m
Data from the previous 72 hours. | See also: Recent months at Gabo Island
Date/Time
EDT
Temp

°C
Wind Pressure Rain
since 9am
mm
Weather Cloud Vis
km
Sea
Height
m
Swell
Dir
 
Speed
knots
Gust
knots
hPa Trend Height
m
Period
s
Dir
26/01:00am 17.5 SW 23 28 1011.7 - 0.0 - - - - - - -
26/12:30am 17.3 SW 22 26 1011.9 - 0.0 - - - - - - -
26/12:00am 17.5 SW 23 29 1011.9 - 0.0 - - - - - - -
 
Date/Time
EDT
Temp

°C
Wind Pressure Rain
since 9am
mm
Weather Cloud Vis
km
Sea
Height
m
Swell
Dir
 
Speed
knots
Gust
knots
hPa Trend Height
m
Period
s
Dir
25/11:30pm 17.6 SW 26 32 1011.9 - 0.0 - - - - - - -
25/11:00pm 17.8 SW 25 31 1011.7 - 0.0 - - - - - - -
25/10:30pm 17.7 SW 24 29 1011.4 - 0.0 - - - - - - -
25/10:00pm 17.9 SW 25 30 1011.1 - 0.0 - - - - - - -
25/09:30pm 18.1 SW 24 31 1010.7 - 0.0 - - - - - - -
25/09:00pm 18.0 SW 25 30 1010.0 - 0.0 Fine Cloudy 25 2 1.0 - E
25/08:30pm 18.2 SW 25 31 1009.7 - 0.0 - - - - - - -
25/08:00pm 18.0 SW 26 32 1009.3 - 0.0 - - - - - - -
25/07:30pm 18.3 SW 27 32 1008.7 - 0.0 - - - - - - -
25/07:00pm 18.3 SW 27 31 1008.2 - 0.0 - - - - - - -
25/06:30pm 18.3 SW 28 32 1007.8 - 0.0 - - - - - - -
25/06:00pm 18.4 SW 25 32 1007.1 - 0.0 - - - - - - -
25/05:30pm 18.3 SW 29 34 1006.9 - 0.0 - - - - - - -
25/05:00pm 18.6 SW 29 35 1006.2 - 0.0 - - - - - - -
25/04:30pm 18.6 SW 28 33 1005.9 - 0.0 - - - - - - -
25/04:00pm 18.7 SW 31 35 1005.5 - 0.0 - - - - - - -
25/03:30pm 18.8 SW 27 30 1005.4 - 0.0 - - - - - - -
25/03:00pm 18.5 SW 27 31 1005.3 - 0.0 Fine Mostly cloudy 25 2 1.0 - E
25/02:30pm 18.7 SW 29 34 1004.8 - 0.0 - - - - - - -
25/02:00pm 18.6 SW 29 34 1004.7 - 0.0 - - - - - - -
25/01:30pm 18.7 SW 29 35 1004.6 - 0.0 - - - - - - -
25/01:00pm 18.9 SW 30 34 1004.0 - 0.0 - - - - - - -
25/12:30pm 19.7 SW 32 38 1003.4 - 0.0 - - - - - - -
25/12:00pm 20.8 SSW 25 29 1003.1 - 0.0 - - - - - - -
25/11:30am 20.6 SSW 21 25 1003.2 - 0.0 - - - - - - -
25/11:00am 20.9 SW 20 25 1003.5 - 0.0 - - - - - - -
25/10:30am 21.4 WSW 20 25 1003.5 - 0.0 - - - - - - -
25/10:00am 20.3 SW 21 26 1003.1 - 0.0 - - - - - - -
25/09:30am 19.9 SW 22 26 1003.0 - 0.0 - - - - - - -
25/09:00am 20.0 WSW 17 23 1002.3 - 11.2 Fine Mostly cloudy 30 1 1.0 - NE
25/08:30am 20.3 W 11 14 1002.1 - 11.2 - - - - - - -
25/08:00am 20.2 W 9 13 1001.2 - 11.2 - - - - - - -
25/07:30am 19.6 WNW 9 11 1000.8 - 11.2 - - - - - - -
25/07:00am 19.1 WNW 8 11 1000.5 - 11.2 - - - - - - -
25/06:30am 19.0 WSW 10 13 1000.4 - 11.2 - - - - - - -
25/06:00am 19.6 SW 11 13 999.9 - 11.2 - - - - - - -
25/05:30am 19.8 SW 12 15 999.6 - 11.2 - - - - - - -
25/05:00am 20.0 WSW 5 7 999.6 - 11.2 - - - - - - -
25/04:30am 19.7 N 6 8 999.2 - 11.2 - - - - - - -
25/04:00am 20.5 NE 9 11 999.3 - 11.2 - - - - - - -
25/03:30am 20.8 NNE 12 15 999.5 - 11.2 - - - - - - -
25/03:00am 20.8 NNE 12 15 999.7 - 11.2 Fine Mostly clear 30 1 1.0 - NE
25/02:30am 20.8 NNE 13 14 1000.4 - 11.2 - - - - - - -
25/02:00am 20.9 NNE 13 15 1000.9 - 11.2 - - - - - - -
25/01:30am 21.1 NNE 18 22 1001.3 - 11.2 - - - - - - -
25/01:00am 20.9 NNE 15 19 1001.7 - 11.2 - - - - - - -
25/12:30am 20.8 N 14 20 1002.0 - 11.2 - - - - - - -
25/12:00am 20.5 NNE 13 16 1002.1 - 11.2 - - - - - - -
 
Date/Time
EDT
Temp

°C
Wind Pressure Rain
since 9am
mm
Weather Cloud Vis
km
Sea
Height
m
Swell
Dir
 
Speed
knots
Gust
knots
hPa Trend Height
m
Period
s
Dir
24/11:30pm 20.0 NNE 12 15 1002.1 - 11.2 - - - - - - -
24/11:00pm 19.9 NNE 14 18 1002.1 - 11.2 - - - - - - -
24/10:30pm 19.9 N 12 14 1002.8 - 11.2 - - - - - - -
24/10:00pm 19.7 N 10 13 1003.1 - 11.2 - - - - - - -
24/09:30pm 19.9 NNE 12 14 1002.8 - 11.2 - - - - - - -
24/09:00pm 20.1 E 11 13 1003.4 - 11.2 Lightning Mostly cloudy 15 1 1.0 - NE
24/08:30pm 20.2 ENE 12 13 1004.5 - 11.0 - - - - - - -
24/08:00pm 20.2 NNE 2 4 1004.4 - 9.2 - - - - - - -
24/07:30pm 19.8 N 9 13 1005.1 - 7.8 - - - - - - -
24/07:00pm 19.7 W 14 18 1003.8 - 7.2 - - - - - - -
24/06:30pm 20.4 WNW 19 27 1005.6 - 3.6 - - - - - - -
24/06:24pm 21.2 W 22 27 1005.7 - 0.2 - - - - - - -
24/06:16pm 21.6 WSW 21 25 1004.4 - 0.0 - - - - - - -
24/06:14pm 22.3 W 13 24 1004.4 - 0.0 - - - - - - -
24/06:00pm 22.8 NNE 18 22 1001.7 - 0.0 - - - - - - -
24/05:30pm 23.2 NNE 17 23 1002.1 - 0.0 - - - - - - -
24/05:00pm 23.7 NNE 19 25 1002.1 - 0.0 - - - - - - -
24/04:30pm 24.0 NNE 19 22 1002.0 - 0.0 - - - - - - -
24/04:00pm 24.1 NNE 20 23 1002.1 - 0.0 - - - - - - -
24/03:30pm 24.2 NNE 19 22 1002.4 - 0.0 - - - - - - -
24/03:00pm 24.7 NNE 20 25 1002.8 - 0.0 Haze Mostly cloudy 20 1 1.0 - NE
24/02:30pm 23.2 NE 20 22 1003.1 - 0.0 - - - - - - -
24/02:00pm 23.4 NNE 18 20 1003.9 - 0.0 - - - - - - -
24/01:30pm 22.7 NNE 19 23 1004.1 - 0.0 - - - - - - -
24/01:00pm 22.6 NNE 21 26 1004.0 - 0.0 - - - - - - -
24/12:30pm 24.4 NNE 22 26 1004.2 - 0.0 - - - - - - -
24/12:00pm 22.7 NE 20 23 1004.4 - 0.0 - - - - - - -
24/11:30am 22.8 NE 16 19 1004.7 - 0.0 - - - - - - -
24/11:00am 23.7 NNE 14 17 1005.3 - 0.0 - - - - - - -
24/10:30am 22.1 NNE 8 10 1005.5 - 0.0 - - - - - - -
24/10:00am 21.4 NNE 8 9 1005.7 - 0.0 - - - - - - -
24/09:30am 21.0 NNE 7 9 1006.0 - 0.0 - - - - - - -
24/09:00am 20.7 NNE 7 9 1005.8 - 0.0 Fine Cloudy 25 1 2.0 - E
24/08:30am 20.1 N 5 7 1006.3 - 0.0 - - - - - - -
24/08:00am 19.6 N 6 7 1006.6 - 0.0 - - - - - - -
24/07:30am 19.3 NNE 5 6 1006.5 - 0.0 - - - - - - -
24/07:00am 19.0 CALM 0 0 1006.6 - 0.0 - - - - - - -
24/06:30am 18.7 CALM 0 0 1006.7 - 0.0 - - - - - - -
24/06:00am 18.7 CALM 0 0 1006.7 - 0.0 - - - - - - -
24/05:30am 18.7 CALM 0 0 1006.8 - 0.0 - - - - - - -
24/05:00am 18.6 W 1 3 1006.6 - 0.0 - - - - - - -
24/04:30am 18.6 WNW 7 9 1006.9 - 0.0 - - - - - - -
24/04:00am 18.7 W 7 9 1006.9 - 0.0 - - - - - - -
24/03:30am 18.7 W 6 8 1007.1 - 0.0 - - - - - - -
24/03:00am 19.0 W 7 8 1007.6 - 0.0 - - - - - - -
24/02:30am 18.8 W 9 12 1008.1 - 0.0 - - - - - - -
24/02:00am 18.8 W 9 11 1008.1 - 0.0 - - - - - - -
24/01:30am 18.8 W 10 12 1008.3 - 0.0 - - - - - - -
24/01:00am 18.9 W 9 10 1008.7 - 0.0 - - - - - - -
24/12:30am 19.0 W 10 12 1008.9 - 0.0 - - - - - - -
24/12:00am 18.8 W 11 13 1009.1 - 0.0 - - - - - - -
 
Date/Time
EDT
Temp

°C
Wind Pressure Rain
since 9am
mm
Weather Cloud Vis
km
Sea
Height
m
Swell
Dir
 
Speed
knots
Gust
knots
hPa Trend Height
m
Period
s
Dir
23/11:30pm 18.9 W 11 13 1009.4 - 0.0 - - - - - - -
23/11:00pm 19.2 WSW 13 16 1009.5 - 0.0 - - - - - - -
23/10:30pm 19.2 WSW 12 15 1009.2 - 0.0 - - - - - - -
23/10:00pm 19.3 WSW 13 16 1008.9 - 0.0 - - - - - - -
23/09:30pm 19.6 SW 13 15 1008.6 - 0.0 - - - - - - -
23/09:00pm 20.4 SW 11 17 1008.0 - 0.0 Distant precip. Mostly cloudy 35 1 2.0 - E
23/08:30pm 20.9 WSW 11 15 1007.7 - 0.0 - - - - - - -
23/08:00pm 20.9 W 11 15 1007.4 - 0.0 - - - - - - -
23/07:30pm 21.4 WSW 13 16 1006.5 - 0.0 - - - - - - -
23/07:00pm 21.2 SSW 12 14 1005.9 - 0.0 - - - - - - -
23/06:30pm 22.2 SW 11 15 1005.6 - 0.0 - - - - - - -
23/06:00pm 22.8 NNE 19 22 1004.0 - 0.0 - - - - - - -
23/05:30pm 22.3 NNE 15 19 1004.1 - 0.0 - - - - - - -
23/05:00pm 23.4 N 8 16 1005.0 - 0.0 - - - - - - -
23/04:30pm 22.9 N 15 24 1004.6 - 0.0 - - - - - - -
23/04:00pm 23.3 NE 24 29 1003.2 - 0.0 - - - - - - -
23/03:30pm 24.2 NE 24 27 1002.8 - 0.0 - - - - - - -
23/03:00pm 24.9 NE 23 27 1003.0 - 0.0 Thunder Partly cloudy 7 1 1.0 - NE
23/02:30pm 24.8 NNE 24 29 1003.3 - 0.0 - - - - - - -
23/02:00pm 24.6 NNE 23 26 1003.6 - 0.0 - - - - - - -
23/01:30pm 24.2 NE 23 26 1003.8 - 0.0 - - - - - - -
23/01:00pm 24.4 NNE 21 24 1004.2 - 0.0 - - - - - - -
23/12:30pm 24.4 NE 19 21 1004.5 - 0.0 - - - - - - -
23/12:00pm 24.4 NE 18 22 1004.7 - 0.0 - - - - - - -
23/11:30am 23.7 NE 18 22 1005.0 - 0.0 - - - - - - -
23/11:00am 23.9 NNE 20 22 1005.2 - 0.0 - - - - - - -
23/10:30am 24.3 NNE 18 20 1005.4 - 0.0 - - - - - - -
23/10:00am 23.7 NNE 19 21 1005.5 - 0.0 - - - - - - -
23/09:30am 23.3 NNE 18 21 1005.8 - 0.0 - - - - - - -
23/09:00am 22.5 NE 16 19 1006.0 - 0.0 Fine Clear 20 1 1.0 - NE
23/08:30am 22.1 NE 16 18 1006.1 - 0.0 - - - - - - -
23/08:00am 21.6 NE 17 19 1006.1 - 0.0 - - - - - - -
23/07:30am 21.3 NNE 13 16 1006.0 - 0.0 - - - - - - -
23/07:00am 20.6 NNE 15 17 1005.9 - 0.0 - - - - - - -
23/06:30am 20.4 NNE 12 15 1005.8 - 0.0 - - - - - - -
23/06:00am 20.3 NNE 11 13 1005.7 - 0.0 - - - - - - -
23/05:30am 20.9 N 12 14 1005.7 - 0.0 - - - - - - -
23/05:00am 20.9 NNE 14 17 1005.7 - 0.0 - - - - - - -
23/04:30am 20.7 NNE 14 17 1005.8 - 0.0 - - - - - - -
23/04:00am 20.6 NNE 13 16 1006.0 - 0.0 - - - - - - -
23/03:30am 20.6 NNE 15 18 1006.2 - 0.0 - - - - - - -
23/03:00am 20.8 NNE 15 20 1006.5 - 0.0 Fine - 20 1 1.0 - NE
23/02:30am 20.9 NNE 17 21 1006.8 - 0.0 - - - - - - -
23/02:00am 21.1 NNE 20 25 1007.1 - 0.0 - - - - - - -
23/01:30am 21.2 NNE 21 25 1007.2 - 0.0 - - - - - - -

Other Formats:

Comma delimited format used in spreadsheet applications
http://www.bom.gov.au/fwo/IDT60701/IDT60701.94933.axf

JavaScript Object Notation format (JSON) in row-major order
http://www.bom.gov.au/fwo/IDT60701/IDT60701.94933.json